Captain Koulis — SV5456 — position and weather

sailwx.info

Track history (hours):
 
Tides and Currents Weather Stations Pressure Air Temp Water Temp Dewpoint Dewpoint Depression Visibility Wind Speed Wind Dir Waves Ship Positions

Captain Koulis

Last reported at 2015-Sep-02 14:24 UTC. Time now 2015-Sep-02 14:52 UTC.
Position N 36°29' E 025°22'.

Length 21 m.

Type: Passenger vessel. MMSI: 239173800.

Date/timePositionNaut miles runAvg speedWind from/ knotsBaromVisibWave heightAir tempDewpointWater temp
2015-Sep-02 14:24N 36°29' E 025°22'5 5.3
2015-Sep-02 13:33N 36°25' E 025°26'4 3.7
2015-Sep-02 12:33N 36°27' E 025°22'4 3.7
2015-Sep-02 11:32N 36°25' E 025°25'1 1.1
2015-Sep-02 10:21N 36°23' E 025°26'1 0.7
2015-Sep-02 09:33N 36°24' E 025°26'1 1.1
2015-Sep-02 08:32N 36°25' E 025°26'1 1.1
2015-Sep-02 07:33N 36°26' E 025°25'1 1.0
2015-Sep-02 06:33N 36°25' E 025°25'1 1.3
2015-Sep-02 05:33N 36°24' E 025°26'1 1.3
2015-Sep-02 04:33N 36°25' E 025°25'1 0.1
2015-Sep-01 17:33N 36°25' E 025°26'0 0.0
2015-Sep-01 16:33N 36°25' E 025°26'0 0.0
2015-Sep-01 15:33N 36°25' E 025°26'0 0.1
2015-Sep-01 10:11N 36°25' E 025°25'0 0.2
2015-Sep-01 08:28N 36°25' E 025°26'0 0.0
2015-Sep-01 07:32N 36°25' E 025°26'2 1.8
2015-Sep-01 06:33N 36°23' E 025°26'1 1.5
2015-Sep-01 05:33N 36°25' E 025°25'0 0.5
2015-Sep-01 04:33N 36°25' E 025°26'0 0.0
2015-Aug-30 14:29N 36°25' E 025°25'0 0.4
2015-Aug-30 13:32N 36°25' E 025°25'1 0.6
2015-Aug-30 12:31N 36°25' E 025°26'1 0.0
2015-Aug-29 07:32N 36°24' E 025°24'1 0.8
2015-Aug-29 06:32N 36°25' E 025°25'1 1.1
2015-Aug-29 05:33N 36°24' E 025°25'1 1.5
2015-Aug-29 04:33N 36°25' E 025°26'1 0.1
2015-Aug-28 17:21N 36°24' E 025°24'1 1.1
2015-Aug-28 16:33N 36°25' E 025°25'0 0.1
2015-Aug-28 15:33N 36°25' E 025°25'0 0.2
2015-Aug-28 13:05N 36°25' E 025°26'3 6.5
2015-Aug-28 12:33N 36°27' E 025°22'3 3.2
2015-Aug-28 11:32N 36°25' E 025°25'0 0.0
2015-Aug-27 17:33N 36°25' E 025°25'2 2.1
2015-Aug-27 16:33N 36°23' E 025°26'1 0.1
2015-Aug-27 05:33N 36°24' E 025°25'1 0.1
2015-Aug-26 14:32N 36°25' E 025°25'1 0.5
2015-Aug-26 13:33N 36°25' E 025°25'0 0.3
2015-Aug-26 12:33N 36°25' E 025°26'0 0.0
2015-Aug-26 11:33N 36°25' E 025°26'0 0.0
2015-Aug-26 10:33N 36°25' E 025°26'0 0.0
2015-Aug-26 09:33N 36°25' E 025°26'2 1.9
2015-Aug-26 08:33N 36°27' E 025°24'3 0.8
2015-Aug-26 05:13N 36°24' E 025°25'1 1.9
2015-Aug-26 04:33N 36°25' E 025°26'1 0.1
2015-Aug-25 18:21N 36°24' E 025°24'1 1.5
2015-Aug-25 17:33N 36°25' E 025°26'0 0.0
2015-Aug-25 13:13N 36°25' E 025°25'0 0.6
2015-Aug-25 12:33N 36°25' E 025°25'2 1.8
2015-Aug-25 11:33N 36°24' E 025°25'2 1.8
2015-Aug-25 10:33N 36°25' E 025°25'1 0.3
2015-Aug-25 08:11N 36°25' E 025°25'0 0.0
2015-Aug-25 07:33N 36°25' E 025°25'1 0.5
2015-Aug-25 06:33N 36°25' E 025°25'0 0.0
2015-Aug-25 05:33N 36°25' E 025°25'1 0.1
2015-Aug-24 15:32N 36°25' E 025°26'0 0.0
2015-Aug-24 14:32N 36°25' E 025°26'2 0.2
2015-Aug-24 05:29N 36°23' E 025°26'2 2.2
2015-Aug-24 04:33N 36°25' E 025°25'  
Track history (hours):
 
Tides and Currents Weather Stations Pressure Air Temp Water Temp Dewpoint Dewpoint Depression Visibility Wind Speed Wind Dir Waves Ship Positions

Captain Koulis

Last reported at 2015-Sep-02 14:24 UTC. Time now 2015-Sep-02 14:52 UTC.
Position N 36°29' E 025°22'.

Length 21 m.

Type: Passenger vessel. MMSI: 239173800.

Date/timePositionNaut miles runAvg speedWind from/ knotsBaromVisibWave heightAir tempDewpointWater temp
2015-Sep-02 14:24N 36°29' E 025°22'5 5.3
2015-Sep-02 13:33N 36°25' E 025°26'4 3.7
2015-Sep-02 12:33N 36°27' E 025°22'4 3.7
2015-Sep-02 11:32N 36°25' E 025°25'1 1.1
2015-Sep-02 10:21N 36°23' E 025°26'1 0.7
2015-Sep-02 09:33N 36°24' E 025°26'1 1.1
2015-Sep-02 08:32N 36°25' E 025°26'1 1.1
2015-Sep-02 07:33N 36°26' E 025°25'1 1.0
2015-Sep-02 06:33N 36°25' E 025°25'1 1.3
2015-Sep-02 05:33N 36°24' E 025°26'1 1.3
2015-Sep-02 04:33N 36°25' E 025°25'1 0.1
2015-Sep-01 17:33N 36°25' E 025°26'0 0.0
2015-Sep-01 16:33N 36°25' E 025°26'0 0.0
2015-Sep-01 15:33N 36°25' E 025°26'0 0.1
2015-Sep-01 10:11N 36°25' E 025°25'0 0.2
2015-Sep-01 08:28N 36°25' E 025°26'0 0.0
2015-Sep-01 07:32N 36°25' E 025°26'2 1.8
2015-Sep-01 06:33N 36°23' E 025°26'1 1.5
2015-Sep-01 05:33N 36°25' E 025°25'0 0.5
2015-Sep-01 04:33N 36°25' E 025°26'0 0.0
2015-Aug-30 14:29N 36°25' E 025°25'0 0.4
2015-Aug-30 13:32N 36°25' E 025°25'1 0.6
2015-Aug-30 12:31N 36°25' E 025°26'1 0.0
2015-Aug-29 07:32N 36°24' E 025°24'1 0.8
2015-Aug-29 06:32N 36°25' E 025°25'1 1.1
2015-Aug-29 05:33N 36°24' E 025°25'1 1.5
2015-Aug-29 04:33N 36°25' E 025°26'1 0.1
2015-Aug-28 17:21N 36°24' E 025°24'1 1.1
2015-Aug-28 16:33N 36°25' E 025°25'0 0.1
2015-Aug-28 15:33N 36°25' E 025°25'0 0.2
2015-Aug-28 13:05N 36°25' E 025°26'3 6.5
2015-Aug-28 12:33N 36°27' E 025°22'3 3.2
2015-Aug-28 11:32N 36°25' E 025°25'0 0.0
2015-Aug-27 17:33N 36°25' E 025°25'2 2.1
2015-Aug-27 16:33N 36°23' E 025°26'1 0.1
2015-Aug-27 05:33N 36°24' E 025°25'1 0.1
2015-Aug-26 14:32N 36°25' E 025°25'1 0.5
2015-Aug-26 13:33N 36°25' E 025°25'0 0.3
2015-Aug-26 12:33N 36°25' E 025°26'0 0.0
2015-Aug-26 11:33N 36°25' E 025°26'0 0.0
2015-Aug-26 10:33N 36°25' E 025°26'0 0.0
2015-Aug-26 09:33N 36°25' E 025°26'2 1.9
2015-Aug-26 08:33N 36°27' E 025°24'3 0.8
2015-Aug-26 05:13N 36°24' E 025°25'1 1.9
2015-Aug-26 04:33N 36°25' E 025°26'1 0.1
2015-Aug-25 18:21N 36°24' E 025°24'1 1.5
2015-Aug-25 17:33N 36°25' E 025°26'0 0.0
2015-Aug-25 13:13N 36°25' E 025°25'0 0.6
2015-Aug-25 12:33N 36°25' E 025°25'2 1.8
2015-Aug-25 11:33N 36°24' E 025°25'2 1.8
2015-Aug-25 10:33N 36°25' E 025°25'1 0.3
2015-Aug-25 08:11N 36°25' E 025°25'0 0.0
2015-Aug-25 07:33N 36°25' E 025°25'1 0.5
2015-Aug-25 06:33N 36°25' E 025°25'0 0.0
2015-Aug-25 05:33N 36°25' E 025°25'1 0.1
2015-Aug-24 15:32N 36°25' E 025°26'0 0.0
2015-Aug-24 14:32N 36°25' E 025°26'2 0.2
2015-Aug-24 05:29N 36°23' E 025°26'2 2.2
2015-Aug-24 04:33N 36°25' E 025°25'  

Dump ship's entire track history